sensor_id;sensor_type;location;lat;lon;timestamp;pressure;altitude;pressure_sealevel;temperature;humidity
13348;BME280;6743;49.934;9.138;2023-01-30T00:01:15;101133.25;;;-0.41;100.00
13348;BME280;6743;49.934;9.138;2023-01-30T00:03:42;101121.84;;;-0.38;100.00
13348;BME280;6743;49.934;9.138;2023-01-30T00:06:10;101118.16;;;-0.34;100.00
13348;BME280;6743;49.934;9.138;2023-01-30T00:08:36;101116.34;;;-0.32;100.00
13348;BME280;6743;49.934;9.138;2023-01-30T00:11:03;101109.22;;;-0.29;100.00
13348;BME280;6743;49.934;9.138;2023-01-30T00:13:29;101113.44;;;-0.26;100.00
13348;BME280;6743;49.934;9.138;2023-01-30T00:15:55;101081.66;;;-0.34;100.00
13348;BME280;6743;49.934;9.138;2023-01-30T00:18:21;101081.66;;;-0.34;100.00
13348;BME280;6743;49.934;9.138;2023-01-30T00:20:48;101103.47;;;-0.18;100.00
13348;BME280;6743;49.934;9.138;2023-01-30T00:23:19;101088.59;;;-0.16;100.00
13348;BME280;6743;49.934;9.138;2023-01-30T00:25:45;101085.06;;;-0.15;100.00
13348;BME280;6743;49.934;9.138;2023-01-30T00:28:11;101092.78;;;-0.14;100.00
13348;BME280;6743;49.934;9.138;2023-01-30T00:30:37;101094.41;;;-0.11;100.00
13348;BME280;6743;49.934;9.138;2023-01-30T00:33:03;101092.66;;;-0.11;100.00
13348;BME280;6743;49.934;9.138;2023-01-30T00:35:29;101092.59;;;-0.09;100.00
13348;BME280;6743;49.934;9.138;2023-01-30T00:37:56;101098.59;;;-0.07;100.00
13348;BME280;6743;49.934;9.138;2023-01-30T00:40:23;101083.75;;;-0.07;100.00
13348;BME280;6743;49.934;9.138;2023-01-30T00:42:49;101080.22;;;-0.06;100.00
13348;BME280;6743;49.934;9.138;2023-01-30T00:45:33;101058.69;;;-0.09;100.00
13348;BME280;6743;49.934;9.138;2023-01-30T00:48:18;101036.91;;;-0.08;100.00
13348;BME280;6743;49.934;9.138;2023-01-30T00:50:44;101040.97;;;-0.03;100.00
13348;BME280;6743;49.934;9.138;2023-01-30T00:53:12;101034.81;;;-0.02;100.00
13348;BME280;6743;49.934;9.138;2023-01-30T00:55:39;101002.53;;;-0.16;100.00
13348;BME280;6743;49.934;9.138;2023-01-30T00:58:05;101011.28;;;0.00;100.00
13348;BME280;6743;49.934;9.138;2023-01-30T01:00:31;100993.00;;;0.00;100.00
13348;BME280;6743;49.934;9.138;2023-01-30T01:02:57;100985.34;;;-0.03;100.00
13348;BME280;6743;49.934;9.138;2023-01-30T01:05:23;100990.47;;;-0.02;100.00
13348;BME280;6743;49.934;9.138;2023-01-30T01:07:49;100999.03;;;0.00;100.00
13348;BME280;6743;49.934;9.138;2023-01-30T01:10:16;100995.63;;;0.00;100.00
13348;BME280;6743;49.934;9.138;2023-01-30T01:12:43;100998.22;;;0.00;100.00
13348;BME280;6743;49.934;9.138;2023-01-30T01:15:09;100993.00;;;0.00;100.00
13348;BME280;6743;49.934;9.138;2023-01-30T01:17:36;100967.84;;;-0.01;100.00
13348;BME280;6743;49.934;9.138;2023-01-30T01:20:03;100977.44;;;-0.02;100.00
13348;BME280;6743;49.934;9.138;2023-01-30T01:22:29;100967.84;;;-0.01;100.00
13348;BME280;6743;49.934;9.138;2023-01-30T01:24:55;100974.84;;;-0.02;100.00
13348;BME280;6743;49.934;9.138;2023-01-30T01:27:22;100985.25;;;-0.02;100.00
13348;BME280;6743;49.934;9.138;2023-01-30T01:29:48;100973.97;;;-0.02;100.00
13348;BME280;6743;49.934;9.138;2023-01-30T01:32:14;100969.53;;;0.00;100.00
13348;BME280;6743;49.934;9.138;2023-01-30T01:34:39;100980.78;;;0.00;100.00
13348;BME280;6743;49.934;9.138;2023-01-30T01:37:05;100985.09;;;0.02;100.00
13348;BME280;6743;49.934;9.138;2023-01-30T01:39:31;100985.00;;;0.03;100.00
13348;BME280;6743;49.934;9.138;2023-01-30T01:42:12;100987.62;;;0.03;100.00
13348;BME280;6743;49.934;9.138;2023-01-30T01:45:01;100959.69;;;0.05;100.00
13348;BME280;6743;49.934;9.138;2023-01-30T01:47:29;100964.91;;;0.05;100.00
13348;BME280;6743;49.934;9.138;2023-01-30T01:49:55;100960.44;;;0.07;100.00
13348;BME280;6743;49.934;9.138;2023-01-30T01:52:21;100938.25;;;0.00;100.00
13348;BME280;6743;49.934;9.138;2023-01-30T01:54:51;100944.78;;;0.07;100.00
13348;BME280;6743;49.934;9.138;2023-01-30T01:57:21;100950.00;;;0.07;100.00
13348;BME280;6743;49.934;9.138;2023-01-30T01:59:51;100960.44;;;0.07;100.00
13348;BME280;6743;49.934;9.138;2023-01-30T02:02:20;100972.50;;;0.10;100.00
13348;BME280;6743;49.934;9.138;2023-01-30T02:04:48;100975.09;;;0.10;100.00
13348;BME280;6743;49.934;9.138;2023-01-30T02:07:28;100973.25;;;0.12;100.00
13348;BME280;6743;49.934;9.138;2023-01-30T02:09:57;100966.28;;;0.12;100.00
13348;BME280;6743;49.934;9.138;2023-01-30T02:12:23;100965.25;;;0.15;100.00
13348;BME280;6743;49.934;9.138;2023-01-30T02:14:50;100962.56;;;0.16;100.00
13348;BME280;6743;49.934;9.138;2023-01-30T02:17:18;100945.06;;;0.18;100.00
13348;BME280;6743;49.934;9.138;2023-01-30T02:19:48;100936.22;;;0.21;100.00
13348;BME280;6743;49.934;9.138;2023-01-30T02:22:38;100926.62;;;0.21;100.00
13348;BME280;6743;49.934;9.138;2023-01-30T02:25:31;100914.69;;;0.17;100.00
13348;BME280;6743;49.934;9.138;2023-01-30T02:31:28;100909.91;;;0.25;100.00
13348;BME280;6743;49.934;9.138;2023-01-30T02:34:08;100901.16;;;0.26;100.00
13348;BME280;6743;49.934;9.138;2023-01-30T02:36:47;100897.63;;;0.27;100.00
13348;BME280;6743;49.934;9.138;2023-01-30T02:39:24;100901.87;;;0.28;100.00
13348;BME280;6743;49.934;9.138;2023-01-30T02:42:02;100914.78;;;0.31;100.00
13348;BME280;6743;49.934;9.138;2023-01-30T02:44:38;100904.34;;;0.31;100.00
13348;BME280;6743;49.934;9.138;2023-01-30T02:47:10;100913.03;;;0.32;100.00
13348;BME280;6743;49.934;9.138;2023-01-30T02:49:41;100907.72;;;0.33;100.00
13348;BME280;6743;49.934;9.138;2023-01-30T02:52:10;100910.34;;;0.33;100.00
13348;BME280;6743;49.934;9.138;2023-01-30T02:54:37;100903.25;;;0.35;100.00
13348;BME280;6743;49.934;9.138;2023-01-30T02:57:15;100887.06;;;0.29;100.00
13348;BME280;6743;49.934;9.138;2023-01-30T02:59:43;100891.88;;;0.36;100.00
13348;BME280;6743;49.934;9.138;2023-01-30T03:02:36;100896.25;;;0.36;100.00
13348;BME280;6743;49.934;9.138;2023-01-30T03:05:37;100895.66;;;0.31;100.00
13348;BME280;6743;49.934;9.138;2023-01-30T03:08:15;100887.50;;;0.37;100.00
13348;BME280;6743;49.934;9.138;2023-01-30T03:10:50;100900.47;;;0.38;100.00
13348;BME280;6743;49.934;9.138;2023-01-30T03:13:20;100883.81;;;0.41;100.00
13348;BME280;6743;49.934;9.138;2023-01-30T03:15:53;100892.31;;;0.45;100.00
13348;BME280;6743;49.934;9.138;2023-01-30T03:18:21;100898.28;;;0.47;100.00
13348;BME280;6743;49.934;9.138;2023-01-30T03:20:48;100885.97;;;0.49;100.00
13348;BME280;6743;49.934;9.138;2023-01-30T03:23:16;100881.50;;;0.51;100.00
13348;BME280;6743;49.934;9.138;2023-01-30T03:25:42;100897.03;;;0.54;100.00
13348;BME280;6743;49.934;9.138;2023-01-30T03:28:11;100891.63;;;0.57;100.00
13348;BME280;6743;49.934;9.138;2023-01-30T03:30:39;100890.78;;;0.56;100.00
13348;BME280;6743;49.934;9.138;2023-01-30T03:33:05;100894.16;;;0.58;100.00
13348;BME280;6743;49.934;9.138;2023-01-30T03:35:32;100896.69;;;0.60;100.00
13348;BME280;6743;49.934;9.138;2023-01-30T03:37:58;100890.78;;;0.56;100.00
13348;BME280;6743;49.934;9.138;2023-01-30T03:40:24;100894.00;;;0.61;100.00
13348;BME280;6743;49.934;9.138;2023-01-30T03:42:50;100884.69;;;0.56;100.00
13348;BME280;6743;49.934;9.138;2023-01-30T03:45:16;100891.25;;;0.63;100.00
13348;BME280;6743;49.934;9.138;2023-01-30T03:47:42;100865.50;;;0.57;100.00
13348;BME280;6743;49.934;9.138;2023-01-30T03:50:09;100883.28;;;0.66;100.00
13348;BME280;6743;49.934;9.138;2023-01-30T03:52:36;100883.19;;;0.67;100.00
13348;BME280;6743;49.934;9.138;2023-01-30T03:55:02;100861.88;;;0.59;100.00
13348;BME280;6743;49.934;9.138;2023-01-30T03:57:29;100866.59;;;0.68;100.00
13348;BME280;6743;49.934;9.138;2023-01-30T03:59:55;100864.72;;;0.70;100.00
13348;BME280;6743;49.934;9.138;2023-01-30T04:02:21;100863.63;;;0.74;100.00
13348;BME280;6743;49.934;9.138;2023-01-30T04:04:47;100851.31;;;0.76;100.00
13348;BME280;6743;49.934;9.138;2023-01-30T04:07:13;100855.53;;;0.79;100.00
13348;BME280;6743;49.934;9.138;2023-01-30T04:09:40;100856.22;;;0.83;100.00
13348;BME280;6743;49.934;9.138;2023-01-30T04:12:06;100855.38;;;0.82;100.00
13348;BME280;6743;49.934;9.138;2023-01-30T04:14:32;100844.31;;;0.77;100.00
13348;BME280;6743;49.934;9.138;2023-01-30T04:16:58;100859.63;;;0.83;100.00
13348;BME280;6743;49.934;9.138;2023-01-30T04:19:24;100834.34;;;0.84;100.00
13348;BME280;6743;49.934;9.138;2023-01-30T04:21:50;100836.06;;;0.85;100.00
13348;BME280;6743;49.934;9.138;2023-01-30T04:24:16;100832.59;;;0.84;100.00
13348;BME280;6743;49.934;9.138;2023-01-30T04:26:43;100834.34;;;0.84;100.00
13348;BME280;6743;49.934;9.138;2023-01-30T04:29:09;100824.69;;;0.86;100.00
13348;BME280;6743;49.934;9.138;2023-01-30T04:31:35;100820.28;;;0.86;100.00
13348;BME280;6743;49.934;9.138;2023-01-30T04:34:00;100817.69;;;0.86;100.00
13348;BME280;6743;49.934;9.138;2023-01-30T04:36:26;100811.69;;;0.84;100.00
13348;BME280;6743;49.934;9.138;2023-01-30T04:38:53;100802.84;;;0.87;100.00
13348;BME280;6743;49.934;9.138;2023-01-30T04:41:20;100793.78;;;0.78;100.00
13348;BME280;6743;49.934;9.138;2023-01-30T04:43:47;100796.03;;;0.84;100.00
13348;BME280;6743;49.934;9.138;2023-01-30T04:46:13;100798.28;;;0.90;100.00
13348;BME280;6743;49.934;9.138;2023-01-30T04:48:39;100776.25;;;0.80;100.00
13348;BME280;6743;49.934;9.138;2023-01-30T04:51:05;100781.69;;;0.91;100.00
13348;BME280;6743;49.934;9.138;2023-01-30T04:53:31;100795.50;;;0.93;100.00
13348;BME280;6743;49.934;9.138;2023-01-30T04:55:57;100791.97;;;0.94;100.00
13348;BME280;6743;49.934;9.138;2023-01-30T04:58:23;100774.31;;;0.98;100.00
13348;BME280;6743;49.934;9.138;2023-01-30T05:00:50;100778.53;;;1.00;100.00
13348;BME280;6743;49.934;9.138;2023-01-30T05:03:16;100766.31;;;1.01;100.00
13348;BME280;6743;49.934;9.138;2023-01-30T05:05:45;100772.37;;;1.01;100.00
13348;BME280;6743;49.934;9.138;2023-01-30T05:08:11;100761.94;;;1.01;100.00
13348;BME280;6743;49.934;9.138;2023-01-30T05:10:37;100765.38;;;1.02;100.00
13348;BME280;6743;49.934;9.138;2023-01-30T05:13:04;100755.78;;;1.02;100.00
13348;BME280;6743;49.934;9.138;2023-01-30T05:15:30;100754.09;;;1.01;100.00
13348;BME280;6743;49.934;9.138;2023-01-30T05:17:57;100754.25;;;0.98;100.00
13348;BME280;6743;49.934;9.138;2023-01-30T05:20:23;100757.06;;;0.95;100.00
13348;BME280;6743;49.934;9.138;2023-01-30T05:22:49;100763.22;;;0.94;100.00
13348;BME280;6743;49.934;9.138;2023-01-30T05:25:15;100758.16;;;0.91;100.00
13348;BME280;6743;49.934;9.138;2023-01-30T05:27:41;100754.81;;;0.89;100.00
13348;BME280;6743;49.934;9.138;2023-01-30T05:30:08;100748.00;;;0.87;100.00
13348;BME280;6743;49.934;9.138;2023-01-30T05:32:34;100735.47;;;0.77;100.00
13348;BME280;6743;49.934;9.138;2023-01-30T05:35:01;100741.38;;;0.81;100.00
13348;BME280;6743;49.934;9.138;2023-01-30T05:37:27;100737.94;;;0.81;100.00
13348;BME280;6743;49.934;9.138;2023-01-30T05:39:53;100748.38;;;0.81;100.00
13348;BME280;6743;49.934;9.138;2023-01-30T05:42:19;100752.75;;;0.80;100.00
13348;BME280;6743;49.934;9.138;2023-01-30T05:44:45;100748.44;;;0.79;100.00
13348;BME280;6743;49.934;9.138;2023-01-30T05:47:10;100728.41;;;0.79;100.00
13348;BME280;6743;49.934;9.138;2023-01-30T05:49:36;100731.09;;;0.78;100.00
13348;BME280;6743;49.934;9.138;2023-01-30T05:52:03;100724.19;;;0.77;100.00
13348;BME280;6743;49.934;9.138;2023-01-30T05:54:29;100725.97;;;0.76;100.00
13348;BME280;6743;49.934;9.138;2023-01-30T05:56:55;100712.91;;;0.76;100.00
13348;BME280;6743;49.934;9.138;2023-01-30T05:59:22;100707.22;;;0.70;100.00
13348;BME280;6743;49.934;9.138;2023-01-30T06:01:48;100712.81;;;0.78;100.00
13348;BME280;6743;49.934;9.138;2023-01-30T06:04:13;100712.72;;;0.79;100.00
13348;BME280;6743;49.934;9.138;2023-01-30T06:06:40;100702.28;;;0.79;100.00
13348;BME280;6743;49.934;9.138;2023-01-30T06:09:08;100706.59;;;0.81;100.00
13348;BME280;6743;49.934;9.138;2023-01-30T06:11:35;100696.97;;;0.81;100.00
13348;BME280;6743;49.934;9.138;2023-01-30T06:14:01;100693.44;;;0.82;100.00
13348;BME280;6743;49.934;9.138;2023-01-30T06:16:27;100701.28;;;0.82;100.00
13348;BME280;6743;49.934;9.138;2023-01-30T06:18:53;100702.13;;;0.83;100.00
13348;BME280;6743;49.934;9.138;2023-01-30T06:21:19;100705.53;;;0.83;100.00
13348;BME280;6743;49.934;9.138;2023-01-30T06:23:45;100707.22;;;0.84;100.00
13348;BME280;6743;49.934;9.138;2023-01-30T06:26:12;100699.38;;;0.84;100.00
13348;BME280;6743;49.934;9.138;2023-01-30T06:28:37;100708.06;;;0.85;100.00
13348;BME280;6743;49.934;9.138;2023-01-30T06:31:05;100700.16;;;0.86;100.00
13348;BME280;6743;49.934;9.138;2023-01-30T06:33:31;100687.94;;;0.87;100.00
13348;BME280;6743;49.934;9.138;2023-01-30T06:35:57;100679.25;;;0.86;100.00
13348;BME280;6743;49.934;9.138;2023-01-30T06:38:23;100687.94;;;0.87;100.00
13348;BME280;6743;49.934;9.138;2023-01-30T06:40:50;100694.09;;;0.86;100.00
13348;BME280;6743;49.934;9.138;2023-01-30T06:43:17;100683.09;;;0.81;100.00
13348;BME280;6743;49.934;9.138;2023-01-30T06:45:43;100693.16;;;0.87;100.00
13348;BME280;6743;49.934;9.138;2023-01-30T06:48:09;100684.37;;;0.88;100.00
13348;BME280;6743;49.934;9.138;2023-01-30T06:50:35;100699.13;;;0.89;100.00
13348;BME280;6743;49.934;9.138;2023-01-30T06:53:02;100696.53;;;0.89;100.00
13348;BME280;6743;49.934;9.138;2023-01-30T06:55:29;100688.22;;;0.82;100.00
13348;BME280;6743;49.934;9.138;2023-01-30T06:58:03;100689.53;;;0.89;100.00
13348;BME280;6743;49.934;9.138;2023-01-30T07:00:30;100696.41;;;0.90;100.00
13348;BME280;6743;49.934;9.138;2023-01-30T07:02:56;100679.34;;;0.85;100.00
13348;BME280;6743;49.934;9.138;2023-01-30T07:05:22;100682.88;;;0.84;100.00
13348;BME280;6743;49.934;9.138;2023-01-30T07:07:48;100704.91;;;0.94;100.00
13348;BME280;6743;49.934;9.138;2023-01-30T07:10:15;100710.91;;;0.96;100.00
13348;BME280;6743;49.934;9.138;2023-01-30T07:12:41;100716.84;;;0.98;100.00
13348;BME280;6743;49.934;9.138;2023-01-30T07:15:08;100717.59;;;1.00;100.00
13348;BME280;6743;49.934;9.138;2023-01-30T07:17:34;100721.06;;;1.00;100.00
13348;BME280;6743;49.934;9.138;2023-01-30T07:20:00;100711.34;;;1.02;100.00
13348;BME280;6743;49.934;9.138;2023-01-30T07:22:26;100709.47;;;1.04;100.00
13348;BME280;6743;49.934;9.138;2023-01-30T07:24:52;100714.44;;;1.09;100.00
13348;BME280;6743;49.934;9.138;2023-01-30T07:27:19;100710.53;;;1.16;100.00
13348;BME280;6743;49.934;9.138;2023-01-30T07:29:45;100730.28;;;1.20;100.00
13348;BME280;6743;49.934;9.138;2023-01-30T07:32:14;100726.66;;;1.23;100.00
13348;BME280;6743;49.934;9.138;2023-01-30T07:34:41;100739.34;;;1.29;100.00
13348;BME280;6743;49.934;9.138;2023-01-30T07:37:07;100738.44;;;1.30;100.00
13348;BME280;6743;49.934;9.138;2023-01-30T07:39:33;100717.97;;;1.22;100.00
13348;BME280;6743;49.934;9.138;2023-01-30T07:42:00;100719.00;;;1.34;100.00
13348;BME280;6743;49.934;9.138;2023-01-30T07:44:26;100728.50;;;1.35;100.00
13348;BME280;6743;49.934;9.138;2023-01-30T07:46:52;100709.59;;;1.31;100.00
13348;BME280;6743;49.934;9.138;2023-01-30T07:49:18;100709.00;;;1.40;100.00
13348;BME280;6743;49.934;9.138;2023-01-30T07:51:44;100720.19;;;1.42;100.00
13348;BME280;6743;49.934;9.138;2023-01-30T07:54:10;100720.00;;;1.45;100.00
13348;BME280;6743;49.934;9.138;2023-01-30T07:56:37;100725.97;;;1.47;100.00
13348;BME280;6743;49.934;9.138;2023-01-30T07:59:03;100731.13;;;1.49;100.00
13348;BME280;6743;49.934;9.138;2023-01-30T08:01:30;100721.28;;;1.52;100.00
13348;BME280;6743;49.934;9.138;2023-01-30T08:03:56;100730.56;;;1.58;100.00
13348;BME280;6743;49.934;9.138;2023-01-30T08:06:22;100723.56;;;1.58;100.00
13348;BME280;6743;49.934;9.138;2023-01-30T08:08:49;100713.09;;;1.58;100.00
13348;BME280;6743;49.934;9.138;2023-01-30T08:11:15;100737.16;;;1.64;100.00
13348;BME280;6743;49.934;9.138;2023-01-30T08:13:42;100712.69;;;1.65;100.00
13348;BME280;6743;49.934;9.138;2023-01-30T08:16:08;100699.72;;;1.63;100.00
13348;BME280;6743;49.934;9.138;2023-01-30T08:18:34;100706.31;;;1.69;100.00
13348;BME280;6743;49.934;9.138;2023-01-30T08:21:03;100689.69;;;1.70;100.00
13348;BME280;6743;49.934;9.138;2023-01-30T08:23:33;100666.16;;;1.70;100.00
13348;BME280;6743;49.934;9.138;2023-01-30T08:26:01;100672.78;;;1.75;100.00
13348;BME280;6743;49.934;9.138;2023-01-30T08:28:29;100682.22;;;1.78;100.00
13348;BME280;6743;49.934;9.138;2023-01-30T08:30:55;100693.31;;;1.81;100.00
13348;BME280;6743;49.934;9.138;2023-01-30T08:33:23;100695.06;;;1.81;100.00
13348;BME280;6743;49.934;9.138;2023-01-30T08:35:50;100687.97;;;1.83;100.00
13348;BME280;6743;49.934;9.138;2023-01-30T08:38:19;100684.72;;;1.79;100.00
13348;BME280;6743;49.934;9.138;2023-01-30T08:40:49;100694.16;;;1.82;100.00
13348;BME280;6743;49.934;9.138;2023-01-30T08:43:16;100703.75;;;1.81;100.00
13348;BME280;6743;49.934;9.138;2023-01-30T08:45:42;100703.75;;;1.81;100.00
13348;BME280;6743;49.934;9.138;2023-01-30T08:48:08;100697.91;;;1.78;100.00
13348;BME280;6743;49.934;9.138;2023-01-30T08:50:34;100689.75;;;1.82;100.00
13348;BME280;6743;49.934;9.138;2023-01-30T08:53:04;100703.66;;;1.83;100.00
13348;BME280;6743;49.934;9.138;2023-01-30T08:55:31;100689.66;;;1.84;100.00
13348;BME280;6743;49.934;9.138;2023-01-30T08:57:57;100678.75;;;1.77;100.00
13348;BME280;6743;49.934;9.138;2023-01-30T09:00:24;100693.88;;;1.86;100.00
13348;BME280;6743;49.934;9.138;2023-01-30T09:02:51;100686.75;;;1.88;100.00
13348;BME280;6743;49.934;9.138;2023-01-30T09:05:17;100677.03;;;1.90;100.00
13348;BME280;6743;49.934;9.138;2023-01-30T09:07:44;100661.22;;;1.92;100.00
13348;BME280;6743;49.934;9.138;2023-01-30T09:10:10;100669.69;;;1.95;100.00
13348;BME280;6743;49.934;9.138;2023-01-30T09:12:36;100657.56;;;1.94;100.00
13348;BME280;6743;49.934;9.138;2023-01-30T09:15:03;100667.19;;;1.94;100.00
13348;BME280;6743;49.934;9.138;2023-01-30T09:17:30;100659.84;;;1.86;100.00
13348;BME280;6743;49.934;9.138;2023-01-30T09:19:56;100660.00;;;1.97;100.00
13348;BME280;6743;49.934;9.138;2023-01-30T09:22:22;100665.13;;;1.99;100.00
13348;BME280;6743;49.934;9.138;2023-01-30T09:24:48;100665.75;;;2.03;100.00
13348;BME280;6743;49.934;9.138;2023-01-30T09:27:14;100664.72;;;2.05;100.00
13348;BME280;6743;49.934;9.138;2023-01-30T09:29:40;100676.75;;;2.08;100.00
13348;BME280;6743;49.934;9.138;2023-01-30T09:32:06;100646.94;;;2.10;100.00
13348;BME280;6743;49.934;9.138;2023-01-30T09:34:32;100646.00;;;2.11;100.00
13348;BME280;6743;49.934;9.138;2023-01-30T09:36:59;100645.06;;;2.12;100.00
13348;BME280;6743;49.934;9.138;2023-01-30T09:39:25;100650.19;;;2.14;100.00
13348;BME280;6743;49.934;9.138;2023-01-30T09:41:59;100638.75;;;2.15;100.00
13348;BME280;6743;49.934;9.138;2023-01-30T09:44:54;100629.44;;;2.11;100.00
13348;BME280;6743;49.934;9.138;2023-01-30T09:47:34;100645.59;;;2.17;100.00
13348;BME280;6743;49.934;9.138;2023-01-30T09:50:16;100644.66;;;2.18;100.00
13348;BME280;6743;49.934;9.138;2023-01-30T09:52:53;100623.28;;;2.12;100.00
13348;BME280;6743;49.934;9.138;2023-01-30T09:55:25;100638.38;;;2.21;100.00
13348;BME280;6743;49.934;9.138;2023-01-30T09:57:56;100641.63;;;2.24;100.00
13348;BME280;6743;49.934;9.138;2023-01-30T10:00:28;100644.88;;;2.28;100.00
13348;BME280;6743;49.934;9.138;2023-01-30T10:03:02;100647.09;;;2.34;100.00
13348;BME280;6743;49.934;9.138;2023-01-30T10:05:36;100647.72;;;2.37;100.00
13348;BME280;6743;49.934;9.138;2023-01-30T10:08:16;100625.62;;;2.42;100.00
13348;BME280;6743;49.934;9.138;2023-01-30T10:10:47;100628.97;;;2.44;100.00
13348;BME280;6743;49.934;9.138;2023-01-30T10:13:27;100596.28;;;2.36;100.00
13348;BME280;6743;49.934;9.138;2023-01-30T10:15:59;100583.50;;;2.45;100.00
13348;BME280;6743;49.934;9.138;2023-01-30T10:21:32;100615.66;;;2.59;100.00
13348;BME280;6743;49.934;9.138;2023-01-30T10:24:31;100616.81;;;2.68;100.00
13348;BME280;6743;49.934;9.138;2023-01-30T10:27:01;100608.44;;;2.75;100.00
13348;BME280;6743;49.934;9.138;2023-01-30T10:29:30;100623.22;;;2.76;100.00
13348;BME280;6743;49.934;9.138;2023-01-30T10:32:00;100625.41;;;2.83;100.00
13348;BME280;6743;49.934;9.138;2023-01-30T10:34:30;100628.53;;;2.88;100.00
13348;BME280;6743;49.934;9.138;2023-01-30T10:37:01;100621.94;;;2.95;100.00
13348;BME280;6743;49.934;9.138;2023-01-30T10:39:34;100630.09;;;3.03;100.00
13348;BME280;6743;49.934;9.138;2023-01-30T10:42:06;100650.63;;;3.09;100.00
13348;BME280;6743;49.934;9.138;2023-01-30T10:44:35;100638.78;;;3.16;100.00
13348;BME280;6743;49.934;9.138;2023-01-30T10:47:19;100635.81;;;3.21;100.00
13348;BME280;6743;49.934;9.138;2023-01-30T10:49:51;100639.19;;;3.23;100.00
13348;BME280;6743;49.934;9.138;2023-01-30T10:52:26;100622.09;;;3.17;100.00
13348;BME280;6743;49.934;9.138;2023-01-30T10:55:02;100618.09;;;3.24;100.00
13348;BME280;6743;49.934;9.138;2023-01-30T10:57:41;100608.88;;;3.18;100.00
13348;BME280;6743;49.934;9.138;2023-01-30T11:00:17;100625.53;;;3.30;100.00
13348;BME280;6743;49.934;9.138;2023-01-30T11:03:02;100635.56;;;3.36;100.00
13348;BME280;6743;49.934;9.138;2023-01-30T11:05:37;100619.41;;;3.42;100.00
13348;BME280;6743;49.934;9.138;2023-01-30T11:08:18;100619.41;;;3.42;100.00
13348;BME280;6743;49.934;9.138;2023-01-30T11:10:44;100620.69;;;3.37;100.00
13348;BME280;6743;49.934;9.138;2023-01-30T11:13:13;100647.41;;;3.42;100.00
13348;BME280;6743;49.934;9.138;2023-01-30T11:15:43;100643.22;;;3.39;100.00
13348;BME280;6743;49.934;9.138;2023-01-30T11:18:11;100654.66;;;3.38;100.00
13348;BME280;6743;49.934;9.138;2023-01-30T11:20:39;100651.41;;;3.35;100.00
13348;BME280;6743;49.934;9.138;2023-01-30T11:23:06;100641.97;;;3.32;100.00
13348;BME280;6743;49.934;9.138;2023-01-30T11:25:46;100651.75;;;3.30;100.00
13348;BME280;6743;49.934;9.138;2023-01-30T11:28:13;100640.47;;;3.17;100.00
13348;BME280;6743;49.934;9.138;2023-01-30T11:30:41;100661.59;;;3.27;100.00
13348;BME280;6743;49.934;9.138;2023-01-30T11:33:12;100652.91;;;3.26;100.00
13348;BME280;6743;49.934;9.138;2023-01-30T11:35:43;100643.16;;;3.28;100.00
13348;BME280;6743;49.934;9.138;2023-01-30T11:38:17;100637.81;;;3.30;100.00
13348;BME280;6743;49.934;9.138;2023-01-30T11:40:45;100643.78;;;3.32;100.00
13348;BME280;6743;49.934;9.138;2023-01-30T11:43:12;100626.81;;;3.25;100.00
13348;BME280;6743;49.934;9.138;2023-01-30T11:45:41;100634.00;;;3.34;100.00
13348;BME280;6743;49.934;9.138;2023-01-30T11:48:14;100633.69;;;3.38;100.00
13348;BME280;6743;49.934;9.138;2023-01-30T11:50:42;100644.69;;;3.43;100.00
13348;BME280;6743;49.934;9.138;2023-01-30T11:53:26;100659.25;;;3.47;100.00
13348;BME280;6743;49.934;9.138;2023-01-30T11:55:56;100665.72;;;3.54;100.00
13348;BME280;6743;49.934;9.138;2023-01-30T11:58:23;100646.38;;;3.44;100.00
13348;BME280;6743;49.934;9.138;2023-01-30T12:00:54;100647.25;;;3.56;100.00
13348;BME280;6743;49.934;9.138;2023-01-30T12:03:22;100660.28;;;3.58;100.00
13348;BME280;6743;49.934;9.138;2023-01-30T12:05:50;100650.47;;;3.60;100.00
13348;BME280;6743;49.934;9.138;2023-01-30T12:08:25;100648.38;;;3.65;100.00
13348;BME280;6743;49.934;9.138;2023-01-30T12:10:54;100641.00;;;3.70;100.00
13348;BME280;6743;49.934;9.138;2023-01-30T12:13:27;100640.06;;;3.71;100.00
13348;BME280;6743;49.934;9.138;2023-01-30T12:16:02;100634.81;;;3.71;100.00
13348;BME280;6743;49.934;9.138;2023-01-30T12:18:33;100591.62;;;3.64;100.00
13348;BME280;6743;49.934;9.138;2023-01-30T12:21:07;100583.00;;;3.62;100.00
13348;BME280;6743;49.934;9.138;2023-01-30T12:23:39;100613.87;;;3.82;100.00
13348;BME280;6743;49.934;9.138;2023-01-30T12:26:10;100592.75;;;3.83;100.00
13348;BME280;6743;49.934;9.138;2023-01-30T12:28:41;100583.84;;;3.86;100.00
13348;BME280;6743;49.934;9.138;2023-01-30T12:31:15;100601.25;;;3.87;100.00
13348;BME280;6743;49.934;9.138;2023-01-30T12:33:43;100594.66;;;3.81;100.00
13348;BME280;6743;49.934;9.138;2023-01-30T12:36:17;100595.19;;;3.86;100.00
13348;BME280;6743;49.934;9.138;2023-01-30T12:39:01;100592.56;;;3.86;100.00
13348;BME280;6743;49.934;9.138;2023-01-30T12:41:41;100593.25;;;3.88;100.00
13348;BME280;6743;49.934;9.138;2023-01-30T12:50:18;100596.13;;;3.85;100.00
13348;BME280;6743;49.934;9.138;2023-01-30T12:53:08;100576.81;;;3.86;100.00
13348;BME280;6743;49.934;9.138;2023-01-30T12:55:44;100594.34;;;3.86;100.00
13348;BME280;6743;49.934;9.138;2023-01-30T12:58:17;100586.31;;;3.87;100.00
13348;BME280;6743;49.934;9.138;2023-01-30T13:01:02;100587.16;;;3.88;100.00
13348;BME280;6743;49.934;9.138;2023-01-30T13:03:35;100583.84;;;3.86;100.00
13348;BME280;6743;49.934;9.138;2023-01-30T13:06:13;100583.84;;;3.86;100.00
13348;BME280;6743;49.934;9.138;2023-01-30T13:09:06;100595.28;;;3.85;100.00
13348;BME280;6743;49.934;9.138;2023-01-30T13:11:44;100589.09;;;3.86;100.00
13348;BME280;6743;49.934;9.138;2023-01-30T13:14:23;100595.03;;;3.88;100.00
13348;BME280;6743;49.934;9.138;2023-01-30T13:17:04;100587.91;;;3.90;100.00
13348;BME280;6743;49.934;9.138;2023-01-30T13:19:41;100603.44;;;3.93;100.00
13348;BME280;6743;49.934;9.138;2023-01-30T13:22:13;100605.09;;;3.94;100.00
13348;BME280;6743;49.934;9.138;2023-01-30T13:24:58;100610.34;;;3.94;100.00